Terminal Aerodrome Forecast
Issued by NWS

Home | Current Version | Previous Version | Text Only | Print | Product List | Glossary On
Versions: 1 2 3 4 5 6 7 8 9 10 11 12 13 14 15 16 17 18 19 20 21 22
000
FTUS43 KFGF 202300
TAFBJI
TAF
KBJI 202326Z 2100/2124 13006KT P6SM BKN250
     FM210900 12006KT P6SM BKN100
     FM211100 11006KT P6SM VCTS BKN060CB
     FM211400 11006KT 5SM -TSRA BKN060CB=

USA.gov is the U.S. government's official web portal to all federal, state and local government web resources and services.